sensor_id;sensor_type;location;lat;lon;timestamp;P1;durP1;ratioP1;P2;durP2;ratioP2
16828;SDS011;8531;48.078;11.968;2023-02-28T00:02:20;3.07;;;1.90;;
16828;SDS011;8531;48.078;11.968;2023-02-28T00:04:45;3.30;;;2.10;;
16828;SDS011;8531;48.078;11.968;2023-02-28T00:07:17;3.03;;;2.20;;
16828;SDS011;8531;48.078;11.968;2023-02-28T00:09:43;2.63;;;2.10;;
16828;SDS011;8531;48.078;11.968;2023-02-28T00:12:09;2.77;;;1.97;;
16828;SDS011;8531;48.078;11.968;2023-02-28T00:14:35;3.43;;;2.23;;
16828;SDS011;8531;48.078;11.968;2023-02-28T00:17:01;2.67;;;1.93;;
16828;SDS011;8531;48.078;11.968;2023-02-28T00:19:27;4.07;;;2.30;;
16828;SDS011;8531;48.078;11.968;2023-02-28T00:21:52;3.10;;;2.47;;
16828;SDS011;8531;48.078;11.968;2023-02-28T00:24:18;5.63;;;2.20;;
16828;SDS011;8531;48.078;11.968;2023-02-28T00:26:44;3.13;;;2.20;;
16828;SDS011;8531;48.078;11.968;2023-02-28T00:29:09;4.93;;;2.40;;
16828;SDS011;8531;48.078;11.968;2023-02-28T00:31:35;4.43;;;2.13;;
16828;SDS011;8531;48.078;11.968;2023-02-28T00:34:01;3.47;;;2.43;;
16828;SDS011;8531;48.078;11.968;2023-02-28T00:36:26;3.33;;;2.13;;
16828;SDS011;8531;48.078;11.968;2023-02-28T00:38:52;3.17;;;2.13;;
16828;SDS011;8531;48.078;11.968;2023-02-28T00:41:18;3.77;;;2.60;;
16828;SDS011;8531;48.078;11.968;2023-02-28T00:43:43;5.40;;;2.77;;
16828;SDS011;8531;48.078;11.968;2023-02-28T00:46:09;4.27;;;2.23;;
16828;SDS011;8531;48.078;11.968;2023-02-28T00:48:35;3.80;;;2.70;;
16828;SDS011;8531;48.078;11.968;2023-02-28T00:51:00;3.93;;;2.00;;
16828;SDS011;8531;48.078;11.968;2023-02-28T00:53:26;4.60;;;2.63;;
16828;SDS011;8531;48.078;11.968;2023-02-28T00:55:52;3.33;;;2.17;;
16828;SDS011;8531;48.078;11.968;2023-02-28T00:58:18;2.80;;;2.50;;
16828;SDS011;8531;48.078;11.968;2023-02-28T01:00:44;3.17;;;2.43;;
16828;SDS011;8531;48.078;11.968;2023-02-28T01:03:13;3.53;;;2.40;;
16828;SDS011;8531;48.078;11.968;2023-02-28T01:05:40;5.07;;;2.10;;
16828;SDS011;8531;48.078;11.968;2023-02-28T01:08:06;3.60;;;2.47;;
16828;SDS011;8531;48.078;11.968;2023-02-28T01:10:32;2.50;;;2.30;;
16828;SDS011;8531;48.078;11.968;2023-02-28T01:12:58;3.07;;;1.97;;
16828;SDS011;8531;48.078;11.968;2023-02-28T01:15:24;2.77;;;2.33;;
16828;SDS011;8531;48.078;11.968;2023-02-28T01:17:50;3.50;;;2.63;;
16828;SDS011;8531;48.078;11.968;2023-02-28T01:20:15;3.50;;;2.47;;
16828;SDS011;8531;48.078;11.968;2023-02-28T01:22:41;3.77;;;2.40;;
16828;SDS011;8531;48.078;11.968;2023-02-28T01:25:07;4.17;;;2.37;;
16828;SDS011;8531;48.078;11.968;2023-02-28T01:27:33;3.73;;;2.23;;
16828;SDS011;8531;48.078;11.968;2023-02-28T01:29:59;4.40;;;2.87;;
16828;SDS011;8531;48.078;11.968;2023-02-28T01:32:24;4.40;;;2.83;;
16828;SDS011;8531;48.078;11.968;2023-02-28T01:34:50;4.53;;;2.50;;
16828;SDS011;8531;48.078;11.968;2023-02-28T01:37:15;4.00;;;2.93;;
16828;SDS011;8531;48.078;11.968;2023-02-28T01:39:41;5.37;;;2.70;;
16828;SDS011;8531;48.078;11.968;2023-02-28T01:42:08;4.20;;;2.50;;
16828;SDS011;8531;48.078;11.968;2023-02-28T01:47:27;3.40;;;2.07;;
16828;SDS011;8531;48.078;11.968;2023-02-28T01:50:04;4.60;;;2.90;;
16828;SDS011;8531;48.078;11.968;2023-02-28T01:52:34;4.30;;;2.57;;
16828;SDS011;8531;48.078;11.968;2023-02-28T01:55:01;3.97;;;2.43;;
16828;SDS011;8531;48.078;11.968;2023-02-28T01:57:30;3.20;;;2.43;;
16828;SDS011;8531;48.078;11.968;2023-02-28T02:00:12;4.10;;;2.80;;
16828;SDS011;8531;48.078;11.968;2023-02-28T02:02:44;4.13;;;2.73;;
16828;SDS011;8531;48.078;11.968;2023-02-28T02:05:15;4.57;;;2.60;;
16828;SDS011;8531;48.078;11.968;2023-02-28T02:07:45;2.40;;;2.20;;
16828;SDS011;8531;48.078;11.968;2023-02-28T02:10:17;4.50;;;3.10;;
16828;SDS011;8531;48.078;11.968;2023-02-28T02:18:53;4.83;;;3.10;;
16828;SDS011;8531;48.078;11.968;2023-02-28T02:27:17;4.57;;;2.83;;
16828;SDS011;8531;48.078;11.968;2023-02-28T02:30:14;3.67;;;2.87;;
16828;SDS011;8531;48.078;11.968;2023-02-28T02:36:28;4.07;;;2.93;;
16828;SDS011;8531;48.078;11.968;2023-02-28T02:39:06;4.13;;;2.90;;
16828;SDS011;8531;48.078;11.968;2023-02-28T02:41:52;4.87;;;2.73;;
16828;SDS011;8531;48.078;11.968;2023-02-28T02:44:23;4.77;;;2.90;;
16828;SDS011;8531;48.078;11.968;2023-02-28T02:47:00;4.00;;;2.97;;
16828;SDS011;8531;48.078;11.968;2023-02-28T02:49:32;4.53;;;3.10;;
16828;SDS011;8531;48.078;11.968;2023-02-28T02:52:02;5.90;;;3.87;;
16828;SDS011;8531;48.078;11.968;2023-02-28T02:54:31;8.07;;;3.63;;
16828;SDS011;8531;48.078;11.968;2023-02-28T02:57:04;5.47;;;3.50;;
16828;SDS011;8531;48.078;11.968;2023-02-28T02:59:33;5.17;;;3.67;;
16828;SDS011;8531;48.078;11.968;2023-02-28T03:02:04;6.60;;;3.83;;
16828;SDS011;8531;48.078;11.968;2023-02-28T03:04:34;6.53;;;3.33;;
16828;SDS011;8531;48.078;11.968;2023-02-28T03:07:07;4.50;;;3.50;;
16828;SDS011;8531;48.078;11.968;2023-02-28T03:09:33;6.27;;;3.70;;
16828;SDS011;8531;48.078;11.968;2023-02-28T03:12:00;8.17;;;6.03;;
16828;SDS011;8531;48.078;11.968;2023-02-28T03:14:40;4.63;;;3.20;;
16828;SDS011;8531;48.078;11.968;2023-02-28T03:17:48;6.10;;;4.07;;
16828;SDS011;8531;48.078;11.968;2023-02-28T03:20:37;6.30;;;3.93;;
16828;SDS011;8531;48.078;11.968;2023-02-28T03:28:16;5.90;;;4.10;;
16828;SDS011;8531;48.078;11.968;2023-02-28T03:33:38;6.63;;;4.17;;
16828;SDS011;8531;48.078;11.968;2023-02-28T03:36:09;5.30;;;3.70;;
16828;SDS011;8531;48.078;11.968;2023-02-28T03:38:40;5.47;;;4.30;;
16828;SDS011;8531;48.078;11.968;2023-02-28T03:41:17;5.57;;;4.30;;
16828;SDS011;8531;48.078;11.968;2023-02-28T03:43:52;6.17;;;4.23;;
16828;SDS011;8531;48.078;11.968;2023-02-28T03:46:23;5.77;;;4.27;;
16828;SDS011;8531;48.078;11.968;2023-02-28T03:48:56;7.53;;;4.63;;
16828;SDS011;8531;48.078;11.968;2023-02-28T03:51:27;6.47;;;4.43;;
16828;SDS011;8531;48.078;11.968;2023-02-28T03:53:56;7.37;;;4.20;;
16828;SDS011;8531;48.078;11.968;2023-02-28T03:56:33;5.73;;;4.27;;
16828;SDS011;8531;48.078;11.968;2023-02-28T04:01:40;6.53;;;4.70;;
16828;SDS011;8531;48.078;11.968;2023-02-28T04:04:09;5.50;;;4.00;;
16828;SDS011;8531;48.078;11.968;2023-02-28T04:06:36;6.57;;;5.00;;
16828;SDS011;8531;48.078;11.968;2023-02-28T04:09:03;7.00;;;4.27;;
16828;SDS011;8531;48.078;11.968;2023-02-28T04:11:34;7.07;;;4.57;;
16828;SDS011;8531;48.078;11.968;2023-02-28T04:14:01;6.27;;;4.73;;
16828;SDS011;8531;48.078;11.968;2023-02-28T04:16:28;7.63;;;4.43;;
16828;SDS011;8531;48.078;11.968;2023-02-28T04:18:54;6.80;;;4.77;;
16828;SDS011;8531;48.078;11.968;2023-02-28T04:21:27;7.00;;;4.83;;
16828;SDS011;8531;48.078;11.968;2023-02-28T04:23:56;7.33;;;5.00;;
16828;SDS011;8531;48.078;11.968;2023-02-28T04:26:25;6.80;;;4.97;;
16828;SDS011;8531;48.078;11.968;2023-02-28T04:29:11;7.20;;;5.40;;
16828;SDS011;8531;48.078;11.968;2023-02-28T04:31:38;8.37;;;5.20;;
16828;SDS011;8531;48.078;11.968;2023-02-28T04:34:04;9.03;;;6.23;;
16828;SDS011;8531;48.078;11.968;2023-02-28T04:36:30;9.53;;;6.00;;
16828;SDS011;8531;48.078;11.968;2023-02-28T04:38:56;8.13;;;5.57;;
16828;SDS011;8531;48.078;11.968;2023-02-28T04:41:22;6.93;;;5.17;;
16828;SDS011;8531;48.078;11.968;2023-02-28T04:43:48;9.60;;;5.77;;
16828;SDS011;8531;48.078;11.968;2023-02-28T04:46:15;8.23;;;6.17;;
16828;SDS011;8531;48.078;11.968;2023-02-28T04:48:42;7.43;;;5.47;;
16828;SDS011;8531;48.078;11.968;2023-02-28T04:51:10;8.50;;;5.37;;
16828;SDS011;8531;48.078;11.968;2023-02-28T04:53:37;9.27;;;6.70;;
16828;SDS011;8531;48.078;11.968;2023-02-28T04:56:04;7.10;;;6.03;;
16828;SDS011;8531;48.078;11.968;2023-02-28T04:58:31;10.90;;;6.13;;
16828;SDS011;8531;48.078;11.968;2023-02-28T05:01:04;8.67;;;6.40;;
16828;SDS011;8531;48.078;11.968;2023-02-28T05:03:41;10.87;;;6.40;;
16828;SDS011;8531;48.078;11.968;2023-02-28T05:06:08;8.97;;;6.30;;
16828;SDS011;8531;48.078;11.968;2023-02-28T05:08:34;12.20;;;6.47;;
16828;SDS011;8531;48.078;11.968;2023-02-28T05:11:00;10.07;;;6.80;;
16828;SDS011;8531;48.078;11.968;2023-02-28T05:13:27;10.83;;;7.20;;
16828;SDS011;8531;48.078;11.968;2023-02-28T05:15:53;8.80;;;6.90;;
16828;SDS011;8531;48.078;11.968;2023-02-28T05:18:19;11.13;;;7.20;;
16828;SDS011;8531;48.078;11.968;2023-02-28T05:20:45;9.73;;;6.73;;
16828;SDS011;8531;48.078;11.968;2023-02-28T05:23:11;10.07;;;7.10;;
16828;SDS011;8531;48.078;11.968;2023-02-28T05:25:38;10.97;;;7.97;;
16828;SDS011;8531;48.078;11.968;2023-02-28T05:28:05;11.37;;;7.00;;
16828;SDS011;8531;48.078;11.968;2023-02-28T05:30:31;10.47;;;7.60;;
16828;SDS011;8531;48.078;11.968;2023-02-28T05:32:58;10.13;;;7.77;;
16828;SDS011;8531;48.078;11.968;2023-02-28T05:35:24;10.50;;;8.00;;
16828;SDS011;8531;48.078;11.968;2023-02-28T05:37:50;12.67;;;7.77;;
16828;SDS011;8531;48.078;11.968;2023-02-28T05:40:16;10.23;;;7.73;;
16828;SDS011;8531;48.078;11.968;2023-02-28T05:42:42;13.53;;;8.93;;
16828;SDS011;8531;48.078;11.968;2023-02-28T05:45:08;11.33;;;8.83;;
16828;SDS011;8531;48.078;11.968;2023-02-28T05:47:35;12.03;;;8.17;;
16828;SDS011;8531;48.078;11.968;2023-02-28T05:50:01;11.73;;;8.30;;
16828;SDS011;8531;48.078;11.968;2023-02-28T05:52:27;12.23;;;8.87;;
16828;SDS011;8531;48.078;11.968;2023-02-28T05:54:55;11.70;;;8.33;;
16828;SDS011;8531;48.078;11.968;2023-02-28T05:57:20;13.37;;;9.50;;
16828;SDS011;8531;48.078;11.968;2023-02-28T05:59:46;12.73;;;8.90;;
16828;SDS011;8531;48.078;11.968;2023-02-28T06:02:13;12.50;;;8.40;;
16828;SDS011;8531;48.078;11.968;2023-02-28T06:04:40;15.23;;;9.37;;
16828;SDS011;8531;48.078;11.968;2023-02-28T06:07:06;13.43;;;9.10;;
16828;SDS011;8531;48.078;11.968;2023-02-28T06:09:32;15.33;;;9.83;;
16828;SDS011;8531;48.078;11.968;2023-02-28T06:11:59;13.77;;;9.57;;
16828;SDS011;8531;48.078;11.968;2023-02-28T06:14:27;13.23;;;9.17;;
16828;SDS011;8531;48.078;11.968;2023-02-28T06:16:53;12.97;;;9.50;;
16828;SDS011;8531;48.078;11.968;2023-02-28T06:19:19;12.87;;;9.67;;
16828;SDS011;8531;48.078;11.968;2023-02-28T06:21:44;14.07;;;9.60;;
16828;SDS011;8531;48.078;11.968;2023-02-28T06:24:13;16.30;;;10.10;;
16828;SDS011;8531;48.078;11.968;2023-02-28T06:26:39;13.53;;;9.97;;
16828;SDS011;8531;48.078;11.968;2023-02-28T06:29:05;14.10;;;10.43;;
16828;SDS011;8531;48.078;11.968;2023-02-28T06:31:30;11.33;;;9.10;;
16828;SDS011;8531;48.078;11.968;2023-02-28T06:33:56;14.17;;;9.93;;
16828;SDS011;8531;48.078;11.968;2023-02-28T06:36:22;13.37;;;10.30;;
16828;SDS011;8531;48.078;11.968;2023-02-28T06:38:48;14.80;;;10.83;;
16828;SDS011;8531;48.078;11.968;2023-02-28T06:41:16;12.87;;;9.63;;
16828;SDS011;8531;48.078;11.968;2023-02-28T06:43:42;15.93;;;10.17;;
16828;SDS011;8531;48.078;11.968;2023-02-28T06:46:10;13.10;;;9.90;;
16828;SDS011;8531;48.078;11.968;2023-02-28T06:48:38;16.00;;;9.80;;
16828;SDS011;8531;48.078;11.968;2023-02-28T06:51:11;13.57;;;9.73;;
16828;SDS011;8531;48.078;11.968;2023-02-28T06:53:40;15.77;;;10.57;;
16828;SDS011;8531;48.078;11.968;2023-02-28T06:56:11;14.03;;;10.43;;
16828;SDS011;8531;48.078;11.968;2023-02-28T06:58:38;15.87;;;10.73;;
16828;SDS011;8531;48.078;11.968;2023-02-28T07:01:04;16.00;;;11.00;;
16828;SDS011;8531;48.078;11.968;2023-02-28T07:03:31;18.60;;;11.27;;
16828;SDS011;8531;48.078;11.968;2023-02-28T07:05:57;12.87;;;9.70;;
16828;SDS011;8531;48.078;11.968;2023-02-28T07:08:23;20.83;;;13.07;;
16828;SDS011;8531;48.078;11.968;2023-02-28T07:10:53;14.30;;;10.60;;
16828;SDS011;8531;48.078;11.968;2023-02-28T07:13:19;13.37;;;10.07;;
16828;SDS011;8531;48.078;11.968;2023-02-28T07:15:52;14.70;;;10.60;;
16828;SDS011;8531;48.078;11.968;2023-02-28T07:18:24;15.80;;;10.47;;
16828;SDS011;8531;48.078;11.968;2023-02-28T07:20:50;14.27;;;10.17;;
16828;SDS011;8531;48.078;11.968;2023-02-28T07:23:16;14.00;;;9.83;;
16828;SDS011;8531;48.078;11.968;2023-02-28T07:25:42;13.37;;;9.73;;
16828;SDS011;8531;48.078;11.968;2023-02-28T07:28:08;13.00;;;10.40;;
16828;SDS011;8531;48.078;11.968;2023-02-28T07:30:34;15.20;;;10.73;;
16828;SDS011;8531;48.078;11.968;2023-02-28T07:33:00;15.00;;;10.43;;
16828;SDS011;8531;48.078;11.968;2023-02-28T07:35:25;12.60;;;9.00;;
16828;SDS011;8531;48.078;11.968;2023-02-28T07:37:51;14.10;;;10.50;;
16828;SDS011;8531;48.078;11.968;2023-02-28T07:40:17;11.47;;;9.33;;
16828;SDS011;8531;48.078;11.968;2023-02-28T07:42:43;16.47;;;10.73;;
16828;SDS011;8531;48.078;11.968;2023-02-28T07:45:09;14.63;;;10.03;;
16828;SDS011;8531;48.078;11.968;2023-02-28T07:47:37;15.47;;;11.30;;
16828;SDS011;8531;48.078;11.968;2023-02-28T07:50:04;16.83;;;11.17;;
16828;SDS011;8531;48.078;11.968;2023-02-28T07:52:31;16.80;;;11.67;;
16828;SDS011;8531;48.078;11.968;2023-02-28T07:54:57;14.77;;;11.37;;
16828;SDS011;8531;48.078;11.968;2023-02-28T07:57:23;15.63;;;10.93;;
16828;SDS011;8531;48.078;11.968;2023-02-28T07:59:48;14.17;;;10.20;;
16828;SDS011;8531;48.078;11.968;2023-02-28T08:02:15;13.50;;;10.57;;
16828;SDS011;8531;48.078;11.968;2023-02-28T08:04:42;12.73;;;10.73;;
16828;SDS011;8531;48.078;11.968;2023-02-28T08:07:07;15.83;;;10.87;;
16828;SDS011;8531;48.078;11.968;2023-02-28T08:09:36;16.83;;;10.60;;
16828;SDS011;8531;48.078;11.968;2023-02-28T08:12:02;14.43;;;10.30;;
16828;SDS011;8531;48.078;11.968;2023-02-28T08:14:28;14.53;;;10.37;;
16828;SDS011;8531;48.078;11.968;2023-02-28T08:16:54;13.77;;;10.67;;
16828;SDS011;8531;48.078;11.968;2023-02-28T08:19:20;13.60;;;10.83;;
16828;SDS011;8531;48.078;11.968;2023-02-28T08:21:45;16.13;;;11.23;;
16828;SDS011;8531;48.078;11.968;2023-02-28T08:24:11;16.40;;;10.70;;
16828;SDS011;8531;48.078;11.968;2023-02-28T08:26:37;26.53;;;11.80;;
16828;SDS011;8531;48.078;11.968;2023-02-28T08:29:02;13.10;;;10.57;;
16828;SDS011;8531;48.078;11.968;2023-02-28T08:31:28;17.23;;;11.63;;
16828;SDS011;8531;48.078;11.968;2023-02-28T08:33:54;15.00;;;10.70;;
16828;SDS011;8531;48.078;11.968;2023-02-28T08:36:21;20.27;;;11.53;;
16828;SDS011;8531;48.078;11.968;2023-02-28T08:38:48;19.47;;;12.83;;
16828;SDS011;8531;48.078;11.968;2023-02-28T08:41:14;21.10;;;11.13;;
16828;SDS011;8531;48.078;11.968;2023-02-28T08:43:40;19.47;;;9.73;;
16828;SDS011;8531;48.078;11.968;2023-02-28T08:46:06;15.63;;;11.23;;
16828;SDS011;8531;48.078;11.968;2023-02-28T08:48:33;14.20;;;10.40;;
16828;SDS011;8531;48.078;11.968;2023-02-28T08:53:28;22.93;;;11.47;;
16828;SDS011;8531;48.078;11.968;2023-02-28T08:56:01;30.57;;;13.20;;
16828;SDS011;8531;48.078;11.968;2023-02-28T08:58:29;15.37;;;10.43;;
16828;SDS011;8531;48.078;11.968;2023-02-28T09:00:55;18.67;;;11.80;;
16828;SDS011;8531;48.078;11.968;2023-02-28T09:03:22;21.37;;;10.70;;
16828;SDS011;8531;48.078;11.968;2023-02-28T09:08:24;19.80;;;12.33;;
16828;SDS011;8531;48.078;11.968;2023-02-28T09:10:52;14.80;;;10.57;;
16828;SDS011;8531;48.078;11.968;2023-02-28T09:13:19;15.97;;;11.47;;
16828;SDS011;8531;48.078;11.968;2023-02-28T09:15:45;20.53;;;11.40;;
16828;SDS011;8531;48.078;11.968;2023-02-28T09:18:11;17.17;;;10.93;;
16828;SDS011;8531;48.078;11.968;2023-02-28T09:20:38;17.40;;;10.67;;
16828;SDS011;8531;48.078;11.968;2023-02-28T09:23:04;16.30;;;11.30;;
16828;SDS011;8531;48.078;11.968;2023-02-28T09:25:31;33.03;;;12.00;;
16828;SDS011;8531;48.078;11.968;2023-02-28T09:27:57;20.17;;;11.57;;
16828;SDS011;8531;48.078;11.968;2023-02-28T09:30:23;21.80;;;11.60;;
16828;SDS011;8531;48.078;11.968;2023-02-28T09:32:48;22.50;;;11.67;;
16828;SDS011;8531;48.078;11.968;2023-02-28T09:35:26;19.43;;;11.97;;
16828;SDS011;8531;48.078;11.968;2023-02-28T09:37:52;15.37;;;11.03;;
16828;SDS011;8531;48.078;11.968;2023-02-28T09:40:18;19.13;;;12.10;;
16828;SDS011;8531;48.078;11.968;2023-02-28T09:42:47;19.77;;;12.50;;
16828;SDS011;8531;48.078;11.968;2023-02-28T09:45:21;21.63;;;12.80;;
16828;SDS011;8531;48.078;11.968;2023-02-28T09:47:55;18.17;;;12.10;;
16828;SDS011;8531;48.078;11.968;2023-02-28T09:52:58;17.63;;;11.27;;
16828;SDS011;8531;48.078;11.968;2023-02-28T09:55:39;28.00;;;12.27;;
16828;SDS011;8531;48.078;11.968;2023-02-28T09:58:18;18.93;;;11.83;;
16828;SDS011;8531;48.078;11.968;2023-02-28T10:00:56;37.90;;;12.43;;
16828;SDS011;8531;48.078;11.968;2023-02-28T10:06:11;18.80;;;11.77;;
16828;SDS011;8531;48.078;11.968;2023-02-28T10:09:01;18.33;;;10.80;;
16828;SDS011;8531;48.078;11.968;2023-02-28T10:11:28;15.97;;;10.53;;
16828;SDS011;8531;48.078;11.968;2023-02-28T10:17:12;17.00;;;11.20;;
16828;SDS011;8531;48.078;11.968;2023-02-28T10:22:34;20.83;;;11.57;;
16828;SDS011;8531;48.078;11.968;2023-02-28T10:25:21;16.33;;;10.27;;
16828;SDS011;8531;48.078;11.968;2023-02-28T10:28:11;16.77;;;11.10;;
16828;SDS011;8531;48.078;11.968;2023-02-28T10:30:56;31.87;;;11.73;;
16828;SDS011;8531;48.078;11.968;2023-02-28T10:35:56;26.30;;;11.20;;
16828;SDS011;8531;48.078;11.968;2023-02-28T10:38:41;23.87;;;11.60;;
16828;SDS011;8531;48.078;11.968;2023-02-28T10:41:14;15.67;;;11.00;;
16828;SDS011;8531;48.078;11.968;2023-02-28T10:43:41;56.33;;;15.13;;
16828;SDS011;8531;48.078;11.968;2023-02-28T10:48:37;16.07;;;10.67;;
16828;SDS011;8531;48.078;11.968;2023-02-28T10:51:08;16.10;;;11.53;;
16828;SDS011;8531;48.078;11.968;2023-02-28T10:53:45;18.60;;;11.73;;
16828;SDS011;8531;48.078;11.968;2023-02-28T10:56:17;16.07;;;11.00;;
16828;SDS011;8531;48.078;11.968;2023-02-28T10:58:48;38.03;;;11.83;;
16828;SDS011;8531;48.078;11.968;2023-02-28T11:04:49;17.87;;;10.23;;
16828;SDS011;8531;48.078;11.968;2023-02-28T11:07:27;17.23;;;10.17;;
16828;SDS011;8531;48.078;11.968;2023-02-28T11:10:05;17.00;;;11.87;;
16828;SDS011;8531;48.078;11.968;2023-02-28T11:12:37;15.13;;;11.03;;
16828;SDS011;8531;48.078;11.968;2023-02-28T11:15:19;29.87;;;12.40;;
16828;SDS011;8531;48.078;11.968;2023-02-28T11:18:02;33.27;;;13.40;;
16828;SDS011;8531;48.078;11.968;2023-02-28T11:20:38;16.17;;;10.97;;
16828;SDS011;8531;48.078;11.968;2023-02-28T11:23:05;20.87;;;11.20;;
16828;SDS011;8531;48.078;11.968;2023-02-28T11:25:38;13.47;;;10.70;;
16828;SDS011;8531;48.078;11.968;2023-02-28T11:28:06;16.80;;;11.93;;
16828;SDS011;8531;48.078;11.968;2023-02-28T11:31:00;19.27;;;11.17;;
16828;SDS011;8531;48.078;11.968;2023-02-28T11:33:48;16.80;;;11.17;;
16828;SDS011;8531;48.078;11.968;2023-02-28T11:36:20;21.03;;;11.33;;
16828;SDS011;8531;48.078;11.968;2023-02-28T11:38:51;14.07;;;11.77;;
16828;SDS011;8531;48.078;11.968;2023-02-28T11:46:52;22.63;;;12.63;;
16828;SDS011;8531;48.078;11.968;2023-02-28T11:49:35;25.20;;;12.00;;
16828;SDS011;8531;48.078;11.968;2023-02-28T11:52:35;16.20;;;10.80;;
16828;SDS011;8531;48.078;11.968;2023-02-28T11:58:31;12.83;;;10.60;;
16828;SDS011;8531;48.078;11.968;2023-02-28T12:01:11;43.03;;;13.47;;
16828;SDS011;8531;48.078;11.968;2023-02-28T12:06:32;32.97;;;11.80;;
16828;SDS011;8531;48.078;11.968;2023-02-28T12:09:13;54.00;;;13.20;;
16828;SDS011;8531;48.078;11.968;2023-02-28T12:12:15;12.47;;;9.97;;
16828;SDS011;8531;48.078;11.968;2023-02-28T12:15:16;20.83;;;11.57;;
16828;SDS011;8531;48.078;11.968;2023-02-28T12:25:44;14.10;;;10.47;;
16828;SDS011;8531;48.078;11.968;2023-02-28T12:28:54;16.97;;;10.43;;
16828;SDS011;8531;48.078;11.968;2023-02-28T12:31:29;16.00;;;10.17;;
16828;SDS011;8531;48.078;11.968;2023-02-28T12:34:01;21.80;;;11.57;;
16828;SDS011;8531;48.078;11.968;2023-02-28T12:36:31;18.10;;;11.13;;
16828;SDS011;8531;48.078;11.968;2023-02-28T12:39:03;12.67;;;9.70;;
16828;SDS011;8531;48.078;11.968;2023-02-28T12:44:11;13.97;;;9.57;;
16828;SDS011;8531;48.078;11.968;2023-02-28T12:46:49;14.20;;;9.77;;
16828;SDS011;8531;48.078;11.968;2023-02-28T12:49:19;19.77;;;11.33;;
16828;SDS011;8531;48.078;11.968;2023-02-28T12:51:50;14.63;;;9.80;;
16828;SDS011;8531;48.078;11.968;2023-02-28T12:54:24;13.77;;;9.73;;
16828;SDS011;8531;48.078;11.968;2023-02-28T12:59:57;16.30;;;9.90;;
16828;SDS011;8531;48.078;11.968;2023-02-28T13:05:07;21.43;;;10.73;;
16828;SDS011;8531;48.078;11.968;2023-02-28T13:10:39;15.73;;;9.23;;
16828;SDS011;8531;48.078;11.968;2023-02-28T13:13:11;11.75;;;10.38;;
16828;SDS011;8531;48.078;11.968;2023-02-28T13:18:48;13.77;;;10.38;;
16828;SDS011;8531;48.078;11.968;2023-02-28T13:24:09;31.20;;;12.45;;
16828;SDS011;8531;48.078;11.968;2023-02-28T13:34:39;15.10;;;9.15;;
16828;SDS011;8531;48.078;11.968;2023-02-28T13:45:29;12.60;;;9.35;;
16828;SDS011;8531;48.078;11.968;2023-02-28T13:47:39;13.55;;;8.77;;
16828;SDS011;8531;48.078;11.968;2023-02-28T13:55:31;14.55;;;9.13;;
16828;SDS011;8531;48.078;11.968;2023-02-28T14:11:37;11.32;;;8.95;;
16828;SDS011;8531;48.078;11.968;2023-02-28T14:14:05;11.10;;;8.65;;
16828;SDS011;8531;48.078;11.968;2023-02-28T14:16:39;11.20;;;8.73;;
16828;SDS011;8531;48.078;11.968;2023-02-28T14:19:24;13.13;;;8.38;;
16828;SDS011;8531;48.078;11.968;2023-02-28T14:22:12;14.82;;;8.85;;
16828;SDS011;8531;48.078;11.968;2023-02-28T14:27:49;14.25;;;8.93;;
16828;SDS011;8531;48.078;11.968;2023-02-28T14:30:19;12.63;;;9.23;;
16828;SDS011;8531;48.078;11.968;2023-02-28T14:32:59;10.05;;;8.63;;
16828;SDS011;8531;48.078;11.968;2023-02-28T14:38:27;10.00;;;8.05;;
16828;SDS011;8531;48.078;11.968;2023-02-28T14:41:03;10.13;;;7.80;;
16828;SDS011;8531;48.078;11.968;2023-02-28T14:43:31;12.27;;;8.25;;
16828;SDS011;8531;48.078;11.968;2023-02-28T14:46:01;8.77;;;7.88;;
16828;SDS011;8531;48.078;11.968;2023-02-28T14:48:29;11.00;;;8.23;;
16828;SDS011;8531;48.078;11.968;2023-02-28T14:50:56;13.85;;;8.02;;
16828;SDS011;8531;48.078;11.968;2023-02-28T14:53:28;14.35;;;7.32;;
16828;SDS011;8531;48.078;11.968;2023-02-28T14:55:55;13.43;;;7.82;;
16828;SDS011;8531;48.078;11.968;2023-02-28T15:00:52;14.45;;;7.72;;
16828;SDS011;8531;48.078;11.968;2023-02-28T15:03:21;12.75;;;8.00;;
16828;SDS011;8531;48.078;11.968;2023-02-28T15:06:02;41.67;;;10.95;;
16828;SDS011;8531;48.078;11.968;2023-02-28T15:08:37;14.32;;;7.70;;
16828;SDS011;8531;48.078;11.968;2023-02-28T15:21:22;15.73;;;8.27;;
16828;SDS011;8531;48.078;11.968;2023-02-28T15:23:53;10.60;;;7.80;;
16828;SDS011;8531;48.078;11.968;2023-02-28T15:26:26;10.02;;;7.95;;
16828;SDS011;8531;48.078;11.968;2023-02-28T15:29:01;11.85;;;8.20;;
16828;SDS011;8531;48.078;11.968;2023-02-28T15:31:43;12.25;;;8.23;;
16828;SDS011;8531;48.078;11.968;2023-02-28T15:34:18;11.80;;;7.50;;
16828;SDS011;8531;48.078;11.968;2023-02-28T15:36:46;12.85;;;7.65;;
16828;SDS011;8531;48.078;11.968;2023-02-28T15:39:23;11.48;;;7.10;;
16828;SDS011;8531;48.078;11.968;2023-02-28T15:42:16;9.90;;;7.85;;
16828;SDS011;8531;48.078;11.968;2023-02-28T15:44:44;14.48;;;7.85;;
16828;SDS011;8531;48.078;11.968;2023-02-28T15:47:29;12.90;;;7.40;;
16828;SDS011;8531;48.078;11.968;2023-02-28T15:50:08;35.17;;;9.60;;
16828;SDS011;8531;48.078;11.968;2023-02-28T15:52:39;8.70;;;7.35;;
16828;SDS011;8531;48.078;11.968;2023-02-28T15:55:08;12.27;;;8.07;;
16828;SDS011;8531;48.078;11.968;2023-02-28T15:57:38;12.13;;;7.55;;
16828;SDS011;8531;48.078;11.968;2023-02-28T16:00:05;15.70;;;10.57;;
16828;SDS011;8531;48.078;11.968;2023-02-28T16:02:37;10.20;;;8.10;;
16828;SDS011;8531;48.078;11.968;2023-02-28T16:07:33;12.20;;;8.88;;
16828;SDS011;8531;48.078;11.968;2023-02-28T16:10:03;17.67;;;8.82;;
16828;SDS011;8531;48.078;11.968;2023-02-28T16:12:30;16.73;;;7.72;;
16828;SDS011;8531;48.078;11.968;2023-02-28T16:14:59;25.52;;;9.55;;
16828;SDS011;8531;48.078;11.968;2023-02-28T16:17:35;9.85;;;8.05;;
16828;SDS011;8531;48.078;11.968;2023-02-28T16:20:13;11.57;;;8.25;;
16828;SDS011;8531;48.078;11.968;2023-02-28T16:22:47;15.57;;;8.55;;
16828;SDS011;8531;48.078;11.968;2023-02-28T16:25:13;14.98;;;7.97;;
16828;SDS011;8531;48.078;11.968;2023-02-28T16:27:42;11.27;;;8.77;;
16828;SDS011;8531;48.078;11.968;2023-02-28T16:30:16;19.10;;;8.57;;
16828;SDS011;8531;48.078;11.968;2023-02-28T16:32:44;9.02;;;7.45;;
16828;SDS011;8531;48.078;11.968;2023-02-28T16:35:10;18.40;;;9.32;;
16828;SDS011;8531;48.078;11.968;2023-02-28T16:37:37;11.82;;;9.18;;
16828;SDS011;8531;48.078;11.968;2023-02-28T16:40:02;12.98;;;8.25;;
16828;SDS011;8531;48.078;11.968;2023-02-28T16:42:28;14.10;;;9.83;;
16828;SDS011;8531;48.078;11.968;2023-02-28T16:44:56;22.25;;;16.25;;
16828;SDS011;8531;48.078;11.968;2023-02-28T16:47:23;23.98;;;18.05;;
16828;SDS011;8531;48.078;11.968;2023-02-28T16:49:49;22.47;;;16.90;;
16828;SDS011;8531;48.078;11.968;2023-02-28T16:52:14;22.90;;;14.20;;
16828;SDS011;8531;48.078;11.968;2023-02-28T16:54:40;16.37;;;11.20;;
16828;SDS011;8531;48.078;11.968;2023-02-28T16:57:07;14.43;;;10.57;;
16828;SDS011;8531;48.078;11.968;2023-02-28T16:59:48;11.73;;;9.00;;
16828;SDS011;8531;48.078;11.968;2023-02-28T17:02:16;10.83;;;8.80;;
16828;SDS011;8531;48.078;11.968;2023-02-28T17:04:44;12.57;;;8.85;;
16828;SDS011;8531;48.078;11.968;2023-02-28T17:07:11;10.73;;;9.00;;
16828;SDS011;8531;48.078;11.968;2023-02-28T17:09:38;14.60;;;8.67;;
16828;SDS011;8531;48.078;11.968;2023-02-28T17:12:05;14.83;;;9.50;;
16828;SDS011;8531;48.078;11.968;2023-02-28T17:14:32;13.10;;;8.90;;
16828;SDS011;8531;48.078;11.968;2023-02-28T17:16:58;14.25;;;9.32;;
16828;SDS011;8531;48.078;11.968;2023-02-28T17:19:23;15.73;;;9.85;;